createdAt,value
2024-03-16T00:00:22.348Z,87.60
2024-03-16T00:04:04.556Z,87.60
2024-03-16T00:07:46.566Z,87.70
2024-03-16T00:11:28.568Z,87.70
2024-03-16T00:15:11.018Z,87.60
2024-03-16T00:18:52.901Z,87.70
2024-03-16T00:22:35.380Z,87.70
2024-03-16T00:26:17.328Z,87.70
2024-03-16T00:29:59.185Z,87.70
2024-03-16T00:33:41.330Z,87.60
2024-03-16T00:37:23.243Z,87.70
2024-03-16T00:41:05.220Z,87.80
2024-03-16T00:44:47.374Z,87.80
2024-03-16T00:48:29.453Z,87.90
2024-03-16T00:52:11.313Z,87.90
2024-03-16T00:55:53.313Z,88.00
2024-03-16T00:59:35.263Z,88.00
2024-03-16T01:03:17.136Z,88.10
2024-03-16T01:06:58.979Z,88.00
2024-03-16T01:10:40.948Z,88.00
2024-03-16T01:14:22.822Z,88.00
2024-03-16T01:18:04.965Z,88.00
2024-03-16T01:21:46.859Z,88.00
2024-03-16T01:25:29.051Z,87.90
2024-03-16T01:29:16.482Z,87.90
2024-03-16T01:32:58.339Z,87.90
2024-03-16T01:36:40.300Z,87.80
2024-03-16T01:40:26.102Z,87.80
2024-03-16T01:44:12.853Z,87.70
2024-03-16T01:47:56.156Z,87.80
2024-03-16T01:51:39.382Z,87.70
2024-03-16T01:55:21.899Z,87.60
2024-03-16T01:59:04.175Z,87.70
2024-03-16T02:02:46.074Z,87.70
2024-03-16T02:06:29.726Z,87.70
2024-03-16T02:10:13.459Z,87.70
2024-03-16T02:13:55.361Z,87.80
2024-03-16T02:17:38.878Z,87.70
2024-03-16T02:21:20.796Z,87.60
2024-03-16T02:25:04.238Z,87.70
2024-03-16T02:28:46.127Z,87.70
2024-03-16T02:32:27.996Z,87.90
2024-03-16T02:36:11.142Z,87.90
2024-03-16T02:39:53.079Z,87.80
2024-03-16T02:43:35.367Z,87.90
2024-03-16T02:47:17.189Z,87.90
2024-03-16T02:50:59.097Z,87.90
2024-03-16T02:54:41.088Z,87.90
2024-03-16T02:58:22.942Z,87.90
2024-03-16T03:02:06.842Z,87.60
2024-03-16T03:05:48.860Z,87.30
2024-03-16T03:09:35.540Z,87.60
2024-03-16T03:13:17.501Z,87.70
2024-03-16T03:17:02.572Z,87.80
2024-03-16T03:20:46.455Z,87.90
2024-03-16T03:24:28.334Z,87.90
2024-03-16T03:28:10.346Z,88.00
2024-03-16T03:31:52.509Z,88.00
2024-03-16T03:35:35.975Z,88.00
2024-03-16T03:39:18.031Z,88.00
2024-03-16T03:43:05.520Z,88.10
2024-03-16T03:46:52.426Z,88.00
2024-03-16T03:50:35.071Z,88.10
2024-03-16T03:54:16.929Z,88.10
2024-03-16T03:57:59.086Z,88.10
2024-03-16T04:01:41.009Z,88.10
2024-03-16T04:05:23.367Z,88.10
2024-03-16T04:09:05.991Z,88.00
2024-03-16T04:12:48.085Z,88.00
2024-03-16T04:16:30.108Z,88.00
2024-03-16T04:20:13.789Z,88.10
2024-03-16T04:23:55.763Z,88.20
2024-03-16T04:27:37.731Z,88.10
2024-03-16T04:31:19.682Z,88.00
2024-03-16T04:35:01.997Z,88.00
2024-03-16T04:38:43.957Z,88.20
2024-03-16T04:42:25.975Z,88.30
2024-03-16T04:46:07.966Z,88.50
2024-03-16T04:49:49.874Z,88.50
2024-03-16T04:53:32.019Z,88.70
2024-03-16T04:57:14.185Z,88.80
2024-03-16T05:00:56.107Z,88.80
2024-03-16T05:04:38.031Z,88.90
2024-03-16T05:08:19.908Z,89.00
2024-03-16T05:12:01.905Z,89.00
2024-03-16T05:15:43.848Z,89.10
2024-03-16T05:19:26.997Z,88.90
2024-03-16T05:23:08.866Z,88.70
2024-03-16T05:26:50.739Z,88.60
2024-03-16T05:30:32.823Z,88.70
2024-03-16T05:34:14.942Z,88.90
2024-03-16T05:37:57.199Z,88.90
2024-03-16T05:41:39.946Z,89.00
2024-03-16T05:45:22.301Z,89.10
2024-03-16T05:49:04.189Z,89.10
2024-03-16T05:52:46.082Z,89.10
2024-03-16T05:56:27.956Z,89.10
2024-03-16T06:00:16.023Z,89.20
2024-03-16T06:03:58.021Z,89.10
2024-03-16T06:07:40.185Z,89.00
2024-03-16T06:11:22.270Z,89.00
2024-03-16T06:15:06.812Z,89.00
2024-03-16T06:18:49.331Z,89.10
2024-03-16T06:22:31.603Z,89.20
2024-03-16T06:26:18.656Z,89.20
2024-03-16T06:30:01.827Z,89.20
2024-03-16T06:33:46.855Z,89.10
2024-03-16T06:37:28.975Z,89.20
2024-03-16T06:41:11.527Z,89.30
2024-03-16T06:44:53.527Z,89.50
2024-03-16T06:48:35.688Z,89.50
2024-03-16T06:52:25.548Z,89.50
2024-03-16T06:56:08.252Z,89.60
2024-03-16T06:59:50.161Z,89.80
2024-03-16T07:03:32.883Z,90.40
2024-03-16T07:07:14.878Z,90.90
2024-03-16T07:10:58.268Z,91.10
2024-03-16T07:14:40.454Z,91.20
2024-03-16T07:18:22.496Z,91.10
2024-03-16T07:22:04.668Z,90.60
2024-03-16T07:25:52.781Z,90.60
2024-03-16T07:29:34.608Z,89.60
2024-03-16T07:33:16.756Z,89.20
2024-03-16T07:37:00.160Z,89.20
2024-03-16T07:40:43.361Z,88.30
2024-03-16T07:44:25.292Z,88.50
2024-03-16T07:48:07.704Z,87.40
2024-03-16T07:51:49.736Z,88.40
2024-03-16T07:55:32.224Z,88.20
2024-03-16T07:59:14.009Z,88.20
2024-03-16T08:02:59.045Z,88.30
2024-03-16T08:06:41.910Z,87.90
2024-03-16T08:10:23.904Z,87.70
2024-03-16T08:14:12.575Z,88.40
2024-03-16T08:17:57.673Z,87.60
2024-03-16T08:21:39.765Z,85.90
2024-03-16T08:25:24.740Z,85.90
2024-03-16T08:29:06.686Z,85.80
2024-03-16T08:32:48.564Z,85.10
2024-03-16T08:36:30.650Z,85.60
2024-03-16T08:40:16.834Z,86.30
2024-03-16T08:43:59.056Z,86.10
2024-03-16T08:47:42.665Z,86.50
2024-03-16T08:51:25.765Z,86.70
2024-03-16T08:55:07.788Z,87.10
2024-03-16T08:58:50.721Z,87.40
2024-03-16T09:02:32.643Z,87.90
2024-03-16T09:06:15.612Z,87.80
2024-03-16T09:09:59.106Z,87.50
2024-03-16T09:13:41.151Z,87.20
2024-03-16T09:17:23.225Z,87.30
2024-03-16T09:21:06.611Z,87.30
2024-03-16T09:24:48.825Z,87.60
2024-03-16T09:28:30.883Z,87.60
2024-03-16T09:32:14.945Z,87.50
2024-03-16T09:35:57.027Z,87.70
2024-03-16T09:39:39.121Z,87.70
